EDXW

Westerland Sylt Airport

Westerland, Germany
TAF EDXW 251700Z 2518/2521 24010KT 9999 FEW040 BECMG 2518/2520 24015KT
Issued Valid From Valid To
Sep-25 @ 17:00 UTC
(2 hours ago)
Sep-25 @ 18:00 UTC
(an hour ago)
Sep-25 @ 21:00 UTC
(in 2 hours)
Sep-25 @ 18:00 to Sep-25 @ 21:00
TAF EDXW 251700Z 2518/2521 24010KT 9999 FEW040
Wind Visibility Clouds
240° at 10 knots 10,000+ meters
  • Few at 4,000' AGL
Becoming Sep-25 @ 18:00 to Sep-25 @ 21:00
BECMG 2518/2520 24015KT
Wind Visibility Clouds
240° at 15 knots 10,000+ meters
  • Few at 4,000' AGL
TAF EDXW 251700Z 2518/2521 24010KT 9999 FEW040 BECMG 2518/2520 24015KT
Issued Sep-25 @ 17:00 UTC
(2 hours ago)
Valid From Sep-25 @ 18:00 UTC
(an hour ago)
Valid To Sep-25 @ 21:00 UTC
(in 2 hours)
Sep-25 @ 18:00 - Sep-25 @ 21:00
Wind Visibility
240° at 10 knots 10,000+ meters
Clouds
  • Few at 4,000' AGL
Becoming Sep-25 @ 18:00 - Sep-25 @ 21:00
Wind Visibility
240° at 15 knots 10,000+ meters
Clouds
  • Few at 4,000' AGL